createdAt,value
2018-06-27T00:01:59.189Z,74.40
2018-06-27T00:04:27.527Z,74.82
2018-06-27T00:06:55.843Z,74.92
2018-06-27T00:09:24.158Z,75.07
2018-06-27T00:11:51.892Z,75.45
2018-06-27T00:14:20.801Z,76.02
2018-06-27T00:16:49.117Z,75.83
2018-06-27T00:19:17.438Z,75.46
2018-06-27T00:21:45.759Z,75.04
2018-06-27T00:24:14.092Z,74.57
2018-06-27T00:26:42.401Z,74.22
2018-06-27T00:29:10.717Z,74.77
2018-06-27T00:31:38.480Z,76.02
2018-06-27T00:34:07.382Z,76.82
2018-06-27T00:36:35.714Z,76.78
2018-06-27T00:39:04.028Z,77.14
2018-06-27T00:41:31.773Z,77.48
2018-06-27T00:44:00.717Z,77.92
2018-06-27T00:46:29.036Z,77.45
2018-06-27T00:48:57.353Z,76.68
2018-06-27T00:51:25.671Z,75.71
2018-06-27T00:53:53.985Z,75.46
2018-06-27T00:56:22.304Z,75.64
2018-06-27T00:58:50.153Z,76.31
2018-06-27T01:01:19.194Z,76.67
2018-06-27T01:03:47.522Z,76.31
2018-06-27T01:06:15.270Z,75.84
2018-06-27T01:08:44.168Z,75.33
2018-06-27T01:11:11.917Z,74.69
2018-06-27T01:13:40.228Z,74.04
2018-06-27T01:16:09.129Z,74.00
2018-06-27T01:18:37.449Z,73.50
2018-06-27T01:21:05.196Z,73.44
2018-06-27T01:23:33.522Z,73.30
2018-06-27T01:26:02.422Z,73.48
2018-06-27T01:28:30.740Z,73.53
2018-06-27T01:30:59.633Z,74.73
2018-06-27T01:33:27.960Z,75.25
2018-06-27T01:35:55.706Z,74.72
2018-06-27T01:38:24.616Z,74.66
2018-06-27T01:40:52.933Z,74.34
2018-06-27T01:43:21.258Z,74.19
2018-06-27T01:45:49.889Z,73.63
2018-06-27T01:48:18.220Z,73.52
2018-06-27T01:50:45.961Z,73.75
2018-06-27T01:53:14.282Z,73.75
2018-06-27T01:55:43.177Z,73.55
2018-06-27T01:58:10.927Z,73.50
2018-06-27T02:00:39.265Z,73.45
2018-06-27T02:03:08.459Z,73.29
2018-06-27T02:05:35.976Z,73.60
2018-06-27T02:08:04.887Z,74.07
2018-06-27T02:10:33.240Z,74.49
2018-06-27T02:13:01.546Z,74.92
2018-06-27T02:15:29.864Z,74.96
2018-06-27T02:17:58.176Z,75.45
2018-06-27T02:20:26.496Z,76.77
2018-06-27T02:22:55.044Z,77.42
2018-06-27T02:25:23.137Z,77.76
2018-06-27T02:27:51.457Z,77.73
2018-06-27T02:30:19.791Z,78.22
2018-06-27T02:32:47.535Z,78.02
2018-06-27T02:35:16.442Z,78.26
2018-06-27T02:37:44.767Z,78.58
2018-06-27T02:40:12.505Z,79.24
2018-06-27T02:42:41.400Z,78.91
2018-06-27T02:45:09.147Z,78.84
2018-06-27T02:47:37.473Z,79.26
2018-06-27T02:50:06.151Z,79.46
2018-06-27T02:52:34.482Z,79.68
2018-06-27T02:55:03.437Z,79.39
2018-06-27T02:57:31.116Z,78.85
2018-06-27T03:00:00.393Z,78.34
2018-06-27T03:02:28.166Z,77.68
2018-06-27T03:04:57.079Z,77.63
2018-06-27T03:07:25.407Z,77.40
2018-06-27T03:09:55.871Z,77.24
2018-06-27T03:12:22.059Z,77.45
2018-06-27T03:14:49.801Z,77.35
2018-06-27T03:17:18.708Z,77.80
2018-06-27T03:19:47.778Z,77.65
2018-06-27T03:22:16.093Z,78.01
2018-06-27T03:24:44.418Z,77.87
2018-06-27T03:27:12.730Z,77.52
2018-06-27T03:29:41.056Z,76.96
2018-06-27T03:32:08.804Z,76.67
2018-06-27T03:34:37.708Z,76.45
2018-06-27T03:37:05.450Z,76.28
2018-06-27T03:39:34.357Z,76.44
2018-06-27T03:42:02.679Z,76.62
2018-06-27T03:44:30.998Z,76.97
2018-06-27T03:46:59.325Z,78.01
2018-06-27T03:49:27.637Z,78.55
2018-06-27T03:51:55.950Z,78.63
2018-06-27T03:54:24.800Z,78.08
2018-06-27T03:56:53.126Z,77.42
2018-06-27T03:59:21.448Z,77.48
2018-06-27T04:01:49.184Z,77.18
2018-06-27T04:04:17.505Z,76.78
2018-06-27T04:06:46.461Z,76.48
2018-06-27T04:09:14.215Z,75.99
2018-06-27T04:11:43.431Z,75.68
2018-06-27T04:14:11.754Z,75.41
2018-06-27T04:16:40.084Z,75.40
2018-06-27T04:19:08.404Z,75.42
2018-06-27T04:21:36.719Z,75.32
2018-06-27T04:24:04.462Z,75.22
2018-06-27T04:26:33.364Z,75.21
2018-06-27T04:29:01.113Z,75.23
2018-06-27T04:31:30.028Z,75.39
2018-06-27T04:33:57.800Z,75.47
2018-06-27T04:36:26.121Z,75.72
2018-06-27T04:38:55.028Z,75.90
2018-06-27T04:41:22.902Z,76.07
2018-06-27T04:43:51.794Z,76.14
2018-06-27T04:46:20.118Z,76.20
2018-06-27T04:48:48.516Z,76.27
2018-06-27T04:51:17.419Z,76.29
2018-06-27T04:53:45.183Z,76.37
2018-06-27T04:56:14.083Z,76.63
2018-06-27T04:58:41.825Z,76.65
2018-06-27T05:03:38.473Z,76.57
2018-06-27T05:06:06.796Z,76.64
2018-06-27T05:08:35.764Z,76.92
2018-06-27T05:11:04.091Z,77.15
2018-06-27T05:13:31.838Z,77.12
2018-06-27T05:16:00.779Z,77.05
2018-06-27T05:18:28.484Z,76.94
2018-06-27T05:20:57.397Z,76.80
2018-06-27T05:23:25.144Z,76.71
2018-06-27T05:25:54.046Z,76.81
2018-06-27T05:28:22.384Z,76.75
2018-06-27T05:30:50.709Z,76.55
2018-06-27T05:33:19.030Z,76.58
2018-06-27T05:35:47.124Z,76.34
2018-06-27T05:38:16.040Z,76.21
2018-06-27T05:40:44.358Z,76.10
2018-06-27T05:43:12.119Z,76.17
2018-06-27T05:45:40.456Z,76.11
2018-06-27T05:48:08.782Z,76.29
2018-06-27T05:50:37.678Z,76.43
2018-06-27T05:53:06.004Z,76.31
2018-06-27T05:55:34.314Z,76.13
2018-06-27T05:58:02.640Z,76.11
2018-06-27T06:00:30.366Z,75.95
2018-06-27T06:02:59.268Z,75.63
2018-06-27T06:05:27.587Z,75.01
2018-06-27T06:07:55.917Z,74.28
2018-06-27T06:10:23.707Z,73.99
2018-06-27T06:12:52.621Z,73.29
2018-06-27T06:15:20.365Z,73.21
2018-06-27T06:17:49.259Z,72.68
2018-06-27T06:20:17.026Z,72.17
2018-06-27T06:22:45.919Z,71.87
2018-06-27T06:25:13.665Z,70.99
2018-06-27T06:27:42.564Z,70.22
2018-06-27T06:30:10.877Z,70.38
2018-06-27T06:32:39.998Z,70.73
2018-06-27T06:35:09.640Z,71.15
2018-06-27T06:37:38.625Z,71.37
2018-06-27T06:40:06.942Z,71.43
2018-06-27T06:42:35.265Z,71.33
2018-06-27T06:45:03.010Z,71.17
2018-06-27T06:47:31.931Z,71.24
2018-06-27T06:50:00.290Z,71.14
2018-06-27T06:52:28.869Z,71.17
2018-06-27T06:54:57.636Z,70.68
2018-06-27T06:57:26.519Z,69.93
2018-06-27T06:59:54.262Z,69.54
2018-06-27T07:02:22.591Z,68.42
2018-06-27T07:04:51.782Z,68.07
2018-06-27T07:07:20.090Z,68.09
2018-06-27T07:09:48.662Z,66.96
2018-06-27T07:12:17.028Z,66.14
2018-06-27T07:14:45.355Z,65.88
2018-06-27T07:17:13.678Z,66.30
2018-06-27T07:19:41.433Z,65.88
2018-06-27T07:22:10.329Z,64.73
2018-06-27T07:24:38.655Z,64.85
2018-06-27T07:27:06.397Z,64.52
2018-06-27T07:29:34.722Z,64.02
2018-06-27T07:32:03.650Z,63.75
2018-06-27T07:34:31.976Z,62.47
2018-06-27T07:37:00.295Z,62.58
2018-06-27T07:39:28.066Z,62.20
2018-06-27T07:41:56.957Z,61.81
2018-06-27T07:44:25.327Z,62.07
2018-06-27T07:46:53.025Z,61.23
2018-06-27T07:49:21.338Z,61.28
2018-06-27T07:51:49.664Z,59.97
2018-06-27T07:54:18.565Z,59.71
2018-06-27T07:56:46.891Z,59.63
2018-06-27T07:59:15.214Z,59.60
2018-06-27T08:01:43.548Z,58.92
2018-06-27T08:04:11.873Z,58.77
2018-06-27T08:06:39.621Z,58.45
2018-06-27T08:09:08.525Z,58.77
2018-06-27T08:11:36.901Z,58.71
2018-06-27T08:14:05.282Z,58.39
2018-06-27T08:16:33.315Z,58.54
2018-06-27T08:19:01.361Z,58.30
2018-06-27T08:21:29.708Z,58.01
2018-06-27T08:23:58.611Z,58.56
2018-06-27T08:26:27.095Z,58.50
2018-06-27T08:28:55.253Z,58.25
2018-06-27T08:31:23.575Z,57.69
2018-06-27T08:33:51.898Z,57.29
2018-06-27T08:36:20.231Z,56.61
2018-06-27T08:38:48.558Z,56.41
2018-06-27T08:41:16.879Z,56.50
2018-06-27T08:43:45.365Z,56.46
2018-06-27T08:46:13.065Z,56.52
2018-06-27T08:48:41.960Z,56.03
2018-06-27T08:51:10.281Z,56.28
2018-06-27T08:53:38.614Z,56.20
2018-06-27T08:56:06.932Z,55.56
2018-06-27T08:58:35.260Z,55.86
2018-06-27T09:01:03.590Z,55.84
2018-06-27T09:03:31.911Z,55.39
2018-06-27T09:06:00.245Z,55.18
2018-06-27T09:08:28.731Z,55.25
2018-06-27T09:10:58.080Z,54.70
2018-06-27T09:13:25.638Z,54.98
2018-06-27T09:15:54.076Z,54.43
2018-06-27T09:18:22.348Z,54.34
2018-06-27T09:20:50.078Z,54.56
2018-06-27T09:23:18.993Z,54.27
2018-06-27T09:25:47.316Z,53.52
2018-06-27T09:28:15.672Z,53.89
2018-06-27T09:30:44.038Z,53.68
2018-06-27T09:33:12.357Z,53.78
2018-06-27T09:35:40.677Z,53.65
2018-06-27T09:38:08.429Z,52.94
2018-06-27T09:40:38.054Z,53.14
2018-06-27T09:43:06.485Z,52.34
2018-06-27T09:45:34.742Z,53.08
2018-06-27T09:48:03.113Z,53.47
2018-06-27T09:50:31.404Z,52.90
2018-06-27T09:52:59.713Z,53.57
2018-06-27T09:55:28.044Z,53.74
2018-06-27T09:57:55.803Z,53.64
2018-06-27T10:00:24.703Z,54.05
2018-06-27T10:02:52.452Z,54.33
2018-06-27T10:05:20.829Z,54.02
2018-06-27T10:07:49.721Z,54.08
2018-06-27T10:10:18.046Z,54.33
2018-06-27T10:12:46.351Z,54.89
2018-06-27T10:15:14.113Z,54.22
2018-06-27T10:17:42.489Z,55.21
2018-06-27T10:20:12.438Z,55.65
2018-06-27T10:22:40.772Z,55.49
2018-06-27T10:25:08.582Z,55.41
2018-06-27T10:27:37.482Z,55.05
2018-06-27T10:30:06.112Z,55.28
2018-06-27T10:32:34.151Z,55.22
2018-06-27T10:35:02.594Z,55.32
2018-06-27T10:37:30.919Z,55.12
2018-06-27T10:39:59.761Z,55.12
2018-06-27T10:42:28.101Z,54.67
2018-06-27T10:44:56.418Z,54.54
2018-06-27T10:47:24.736Z,54.72
2018-06-27T10:49:53.650Z,54.59
2018-06-27T10:52:21.967Z,54.54
2018-06-27T10:54:50.411Z,53.89
2018-06-27T10:57:18.732Z,53.46
2018-06-27T10:59:47.069Z,53.20
2018-06-27T11:02:17.927Z,52.54
2018-06-27T11:04:46.383Z,52.75
2018-06-27T11:07:16.350Z,52.67
2018-06-27T11:09:46.660Z,52.79
2018-06-27T11:12:14.811Z,51.80
2018-06-27T11:14:43.085Z,51.23
2018-06-27T11:17:11.656Z,51.55
2018-06-27T11:19:40.063Z,51.52
2018-06-27T11:22:08.183Z,51.71
2018-06-27T11:24:36.522Z,51.24
2018-06-27T11:27:05.066Z,50.30
2018-06-27T11:29:33.215Z,49.83
2018-06-27T11:32:01.924Z,49.32
2018-06-27T11:34:29.679Z,49.16
2018-06-27T11:36:58.636Z,48.59
2018-06-27T11:39:26.981Z,48.70
2018-06-27T11:41:55.298Z,48.63
2018-06-27T11:44:23.435Z,49.27
2018-06-27T11:46:51.720Z,47.45
2018-06-27T11:49:20.617Z,46.89
2018-06-27T11:51:48.959Z,46.98
2018-06-27T11:54:17.275Z,47.04
2018-06-27T11:56:45.031Z,45.59
2018-06-27T11:59:13.926Z,46.52
2018-06-27T12:01:42.253Z,46.85
2018-06-27T12:04:10.003Z,46.61
2018-06-27T12:06:38.911Z,46.68
2018-06-27T12:09:07.238Z,47.48
2018-06-27T12:11:35.717Z,46.58
2018-06-27T12:14:03.623Z,45.79
2018-06-27T12:16:33.295Z,45.45
2018-06-27T12:19:00.961Z,45.36
2018-06-27T12:21:29.280Z,45.24
2018-06-27T12:23:57.692Z,44.34
2018-06-27T12:26:26.097Z,44.82
2018-06-27T12:28:54.381Z,44.35
2018-06-27T12:31:22.723Z,44.95
2018-06-27T12:33:51.046Z,44.94
2018-06-27T12:36:19.587Z,44.45
2018-06-27T12:38:47.879Z,44.55
2018-06-27T12:41:16.235Z,44.40
2018-06-27T12:43:43.986Z,44.07
2018-06-27T12:46:12.924Z,43.71
2018-06-27T12:48:41.291Z,42.82
2018-06-27T12:51:09.622Z,42.72
2018-06-27T12:53:37.986Z,42.94
2018-06-27T12:56:06.421Z,43.20
2018-06-27T12:58:34.195Z,42.63
2018-06-27T13:01:03.096Z,42.22
2018-06-27T13:03:31.440Z,41.42
2018-06-27T13:05:59.888Z,41.04
2018-06-27T13:08:28.431Z,41.04
2018-06-27T13:10:56.550Z,41.43
2018-06-27T13:13:24.867Z,40.42
2018-06-27T13:15:53.305Z,40.01
2018-06-27T13:18:21.533Z,39.14
2018-06-27T13:20:50.276Z,39.36
2018-06-27T13:23:19.237Z,39.10
2018-06-27T13:25:46.984Z,39.36
2018-06-27T13:28:16.722Z,38.48
2018-06-27T13:30:46.127Z,37.82
2018-06-27T13:33:13.671Z,37.70
2018-06-27T13:35:41.431Z,37.19
2018-06-27T13:38:10.376Z,37.21
2018-06-27T13:40:38.939Z,37.24
2018-06-27T13:43:07.157Z,36.77
2018-06-27T13:45:35.598Z,36.50
2018-06-27T13:48:03.838Z,36.02
2018-06-27T13:50:31.667Z,36.37
2018-06-27T13:52:59.988Z,36.81
2018-06-27T13:55:28.890Z,37.22
2018-06-27T13:57:58.023Z,37.53
2018-06-27T14:00:25.013Z,37.92
2018-06-27T14:02:54.860Z,37.50
2018-06-27T14:05:23.968Z,37.14
2018-06-27T14:07:52.310Z,37.96
2018-06-27T14:10:20.880Z,38.21
2018-06-27T14:12:53.003Z,38.11
2018-06-27T14:15:18.199Z,37.64
2018-06-27T14:17:47.083Z,38.16
2018-06-27T14:20:15.417Z,38.43
2018-06-27T14:22:43.741Z,38.59
2018-06-27T14:25:12.150Z,38.36
2018-06-27T14:27:40.587Z,37.84
2018-06-27T14:30:08.375Z,37.15
2018-06-27T14:32:40.131Z,36.38
2018-06-27T14:35:08.464Z,36.75
2018-06-27T14:37:36.220Z,36.18
2018-06-27T14:40:05.197Z,36.01
2018-06-27T14:42:33.506Z,35.63
2018-06-27T14:45:01.850Z,35.33
2018-06-27T14:47:29.662Z,35.12
2018-06-27T14:49:58.590Z,34.84
2018-06-27T14:52:26.344Z,34.34
2018-06-27T14:54:55.263Z,33.51
2018-06-27T14:57:23.003Z,33.94
2018-06-27T14:59:52.261Z,32.92
2018-06-27T15:02:20.763Z,33.23
2018-06-27T15:04:48.710Z,32.71
2018-06-27T15:07:17.561Z,33.23
2018-06-27T15:09:45.906Z,33.87
2018-06-27T15:12:14.225Z,33.97
2018-06-27T15:14:42.559Z,34.23
2018-06-27T15:17:10.898Z,34.23
2018-06-27T15:19:38.682Z,33.93
2018-06-27T15:22:07.904Z,34.08
2018-06-27T15:24:36.010Z,34.21
2018-06-27T15:27:04.405Z,34.39
2018-06-27T15:29:32.837Z,34.34
2018-06-27T15:32:01.325Z,34.70
2018-06-27T15:34:29.933Z,34.72
2018-06-27T15:36:58.234Z,34.39
2018-06-27T15:39:30.401Z,34.13
2018-06-27T15:41:58.810Z,33.28
2018-06-27T15:44:30.643Z,33.44
2018-06-27T15:46:59.685Z,33.34
2018-06-27T15:49:30.090Z,33.09
2018-06-27T15:51:59.328Z,32.53
2018-06-27T15:54:27.698Z,31.99
2018-06-27T15:56:56.610Z,31.72
2018-06-27T15:59:24.965Z,31.76
2018-06-27T16:01:53.608Z,31.36
2018-06-27T16:04:23.631Z,31.41
2018-06-27T16:06:52.374Z,31.17
2018-06-27T16:09:20.699Z,31.44
2018-06-27T16:11:49.107Z,31.16
2018-06-27T16:14:16.827Z,31.14
2018-06-27T16:16:45.987Z,31.03
2018-06-27T16:19:14.233Z,31.20
2018-06-27T16:21:42.848Z,30.89
2018-06-27T16:24:11.639Z,31.55
2018-06-27T16:26:40.026Z,32.05
2018-06-27T16:29:08.764Z,31.83
2018-06-27T16:31:37.530Z,31.61
2018-06-27T16:34:05.930Z,31.46
2018-06-27T16:36:34.203Z,31.21
2018-06-27T16:39:03.698Z,31.52
2018-06-27T16:41:32.037Z,31.42
2018-06-27T16:44:02.914Z,31.48
2018-06-27T16:46:31.097Z,31.48
2018-06-27T16:49:00.069Z,31.62
2018-06-27T16:51:28.487Z,32.03
2018-06-27T16:53:56.746Z,32.52
2018-06-27T16:56:24.539Z,33.11
2018-06-27T16:58:52.868Z,33.36
2018-06-27T17:01:21.507Z,33.32
2018-06-27T17:03:59.553Z,33.23
2018-06-27T17:06:18.625Z,33.51
2018-06-27T17:08:46.906Z,33.61
2018-06-27T17:11:14.946Z,34.09
2018-06-27T17:13:43.985Z,34.46
2018-06-27T17:16:12.295Z,35.18
2018-06-27T17:18:40.202Z,35.88
2018-06-27T17:21:08.400Z,36.79
2018-06-27T17:23:36.715Z,37.66
2018-06-27T17:26:05.876Z,38.70
2018-06-27T17:28:40.071Z,39.92
2018-06-27T17:31:04.150Z,40.79
2018-06-27T17:33:32.880Z,41.59
2018-06-27T17:36:03.159Z,42.28
2018-06-27T17:38:30.147Z,42.74
2018-06-27T17:40:59.053Z,42.94
2018-06-27T17:43:27.522Z,43.20
2018-06-27T17:45:55.823Z,43.70
2018-06-27T17:48:25.486Z,43.90
2018-06-27T17:51:05.139Z,44.36
2018-06-27T17:53:25.143Z,44.51
2018-06-27T17:55:53.361Z,45.10
2018-06-27T17:58:21.696Z,45.39
2018-06-27T18:00:50.155Z,45.52
2018-06-27T18:03:17.901Z,45.74
2018-06-27T18:05:47.207Z,45.84
2018-06-27T18:08:15.854Z,46.11
2018-06-27T18:10:45.606Z,46.29
2018-06-27T18:13:13.301Z,46.36
2018-06-27T18:15:42.205Z,46.42
2018-06-27T18:18:10.543Z,46.39
2018-06-27T18:20:38.921Z,46.48
2018-06-27T18:23:07.304Z,46.70
2018-06-27T18:25:35.585Z,47.13
2018-06-27T18:28:03.972Z,47.47
2018-06-27T18:30:33.120Z,47.63
2018-06-27T18:33:00.906Z,47.85
2018-06-27T18:35:29.226Z,47.96
2018-06-27T18:37:57.550Z,47.98
2018-06-27T18:40:26.453Z,48.00
2018-06-27T18:42:54.884Z,48.22
2018-06-27T18:45:23.707Z,48.33
2018-06-27T18:47:51.849Z,48.47
2018-06-27T18:50:20.169Z,48.88
2018-06-27T18:52:48.495Z,49.35
2018-06-27T18:55:16.824Z,49.55
2018-06-27T18:57:45.155Z,49.88
2018-06-27T19:00:13.495Z,50.19
2018-06-27T19:02:41.861Z,49.91
2018-06-27T19:05:10.184Z,49.79
2018-06-27T19:07:38.526Z,49.69
2018-06-27T19:10:06.314Z,49.88
2018-06-27T19:12:35.477Z,50.07
2018-06-27T19:15:03.562Z,50.13
2018-06-27T19:17:37.661Z,50.16
2018-06-27T19:20:06.034Z,50.48
2018-06-27T19:22:34.429Z,50.59
2018-06-27T19:25:03.623Z,50.61
2018-06-27T19:27:31.982Z,50.84
2018-06-27T19:30:00.336Z,51.19
2018-06-27T19:32:28.688Z,51.42
2018-06-27T19:34:57.075Z,51.97
2018-06-27T19:37:24.810Z,52.59
2018-06-27T19:39:53.710Z,52.83
2018-06-27T19:42:22.079Z,52.90
2018-06-27T19:44:51.639Z,53.16
2018-06-27T19:47:19.381Z,53.30
2018-06-27T19:49:48.691Z,53.38
2018-06-27T19:52:17.065Z,53.45
2018-06-27T19:54:45.403Z,53.68
2018-06-27T19:57:13.844Z,53.77
2018-06-27T19:59:42.216Z,54.19
2018-06-27T20:02:10.860Z,54.25
2018-06-27T20:04:39.143Z,54.22
2018-06-27T20:07:06.916Z,54.28
2018-06-27T20:09:35.540Z,54.56
2018-06-27T20:12:04.435Z,54.83
2018-06-27T20:14:32.803Z,55.08
2018-06-27T20:17:01.088Z,55.01
2018-06-27T20:19:28.832Z,55.11
2018-06-27T20:21:57.847Z,55.31
2018-06-27T20:24:26.140Z,56.44
2018-06-27T20:26:54.492Z,57.69
2018-06-27T20:29:22.286Z,58.85
2018-06-27T20:31:51.223Z,60.04
2018-06-27T20:34:19.584Z,60.60
2018-06-27T20:36:47.649Z,61.05
2018-06-27T20:39:17.079Z,61.53
2018-06-27T20:41:45.848Z,62.12
2018-06-27T20:44:14.300Z,62.71
2018-06-27T20:46:42.654Z,63.07
2018-06-27T20:49:11.738Z,63.13
2018-06-27T20:51:39.664Z,63.46
2018-06-27T20:54:10.514Z,63.63
2018-06-27T20:56:38.841Z,63.67
2018-06-27T20:59:10.111Z,63.75
2018-06-27T21:01:38.427Z,63.72
2018-06-27T21:04:06.760Z,63.61
2018-06-27T21:06:35.097Z,63.68
2018-06-27T21:09:06.178Z,63.93
2018-06-27T21:11:38.600Z,64.35
2018-06-27T21:16:54.098Z,64.80
2018-06-27T21:19:23.335Z,64.99
2018-06-27T21:21:51.162Z,65.08
2018-06-27T21:24:19.860Z,65.36
2018-06-27T21:26:49.062Z,65.37
2018-06-27T21:29:18.929Z,65.65
2018-06-27T21:31:48.573Z,66.06
2018-06-27T21:34:16.970Z,66.45
2018-06-27T21:36:45.543Z,66.46
2018-06-27T21:39:14.845Z,66.67
2018-06-27T21:41:44.451Z,66.92
2018-06-27T21:44:13.469Z,66.96
2018-06-27T21:46:42.320Z,67.28
2018-06-27T21:49:10.786Z,67.52
2018-06-27T21:51:39.675Z,67.91
2018-06-27T21:54:09.591Z,68.15
2018-06-27T21:56:40.473Z,68.19
2018-06-27T21:59:07.300Z,68.46
2018-06-27T22:01:35.906Z,68.47
2018-06-27T22:04:11.148Z,68.74
2018-06-27T22:06:42.450Z,68.94
2018-06-27T22:09:10.084Z,69.20
2018-06-27T22:11:37.711Z,69.31
2018-06-27T22:14:06.407Z,69.05
2018-06-27T22:16:35.020Z,68.43
2018-06-27T22:19:04.109Z,68.13
2018-06-27T22:21:32.127Z,67.46
2018-06-27T22:24:01.259Z,67.84
2018-06-27T22:26:29.639Z,68.34
2018-06-27T22:29:00.521Z,68.36
2018-06-27T22:31:28.952Z,68.43
2018-06-27T22:33:57.320Z,68.62
2018-06-27T22:36:25.073Z,68.49
2018-06-27T22:38:53.972Z,68.77
2018-06-27T22:41:22.298Z,69.22
2018-06-27T22:43:50.736Z,69.10
2018-06-27T22:46:19.126Z,68.98
2018-06-27T22:48:47.449Z,68.94
2018-06-27T22:51:15.181Z,69.21
2018-06-27T22:53:44.088Z,69.24
2018-06-27T22:56:12.451Z,69.36
2018-06-27T22:58:42.548Z,69.73
2018-06-27T23:01:10.420Z,70.00
2018-06-27T23:03:38.739Z,70.11
2018-06-27T23:06:07.059Z,70.59
2018-06-27T23:08:35.959Z,70.63
2018-06-27T23:11:04.394Z,70.64
2018-06-27T23:13:32.805Z,70.48
2018-06-27T23:16:01.220Z,70.79
2018-06-27T23:18:29.561Z,70.74
2018-06-27T23:20:57.297Z,71.02
2018-06-27T23:23:25.638Z,71.27
2018-06-27T23:25:53.961Z,71.76
2018-06-27T23:28:22.350Z,71.60
2018-06-27T23:30:51.444Z,71.62
2018-06-27T23:33:19.779Z,71.15
2018-06-27T23:35:48.101Z,70.58
2018-06-27T23:38:16.413Z,70.22
2018-06-27T23:40:44.190Z,70.43
2018-06-27T23:43:12.522Z,70.10
2018-06-27T23:45:40.842Z,70.01
2018-06-27T23:48:09.162Z,70.08
2018-06-27T23:50:38.061Z,70.43
2018-06-27T23:53:05.799Z,70.88
2018-06-27T23:55:34.702Z,71.04
2018-06-27T23:58:03.023Z,70.52
